sensor_id;sensor_type;location;lat;lon;timestamp;P1;durP1;ratioP1;P2;durP2;ratioP2
28028;SDS011;15345;59.364;18.016;2022-11-10T00:00:20;13.77;;;5.45;;
28028;SDS011;15345;59.364;18.016;2022-11-10T00:01:39;18.20;;;5.65;;
28028;SDS011;15345;59.364;18.016;2022-11-10T00:02:59;10.20;;;5.45;;
28028;SDS011;15345;59.364;18.016;2022-11-10T00:04:19;8.93;;;5.40;;
28028;SDS011;15345;59.364;18.016;2022-11-10T00:05:37;9.35;;;4.95;;
28028;SDS011;15345;59.364;18.016;2022-11-10T00:06:56;12.50;;;5.63;;
28028;SDS011;15345;59.364;18.016;2022-11-10T00:08:15;11.68;;;5.60;;
28028;SDS011;15345;59.364;18.016;2022-11-10T00:09:35;12.90;;;5.63;;
28028;SDS011;15345;59.364;18.016;2022-11-10T00:10:53;12.43;;;4.82;;
28028;SDS011;15345;59.364;18.016;2022-11-10T00:12:15;7.55;;;5.18;;
28028;SDS011;15345;59.364;18.016;2022-11-10T00:13:35;12.52;;;5.03;;
28028;SDS011;15345;59.364;18.016;2022-11-10T00:15:14;7.07;;;4.95;;
28028;SDS011;15345;59.364;18.016;2022-11-10T00:16:52;10.00;;;5.25;;
28028;SDS011;15345;59.364;18.016;2022-11-10T00:18:21;7.68;;;5.43;;
28028;SDS011;15345;59.364;18.016;2022-11-10T00:19:40;12.85;;;5.38;;
28028;SDS011;15345;59.364;18.016;2022-11-10T00:21:03;10.18;;;4.93;;
28028;SDS011;15345;59.364;18.016;2022-11-10T00:22:22;12.07;;;5.30;;
28028;SDS011;15345;59.364;18.016;2022-11-10T00:23:41;8.38;;;4.93;;
28028;SDS011;15345;59.364;18.016;2022-11-10T00:25:00;9.48;;;4.70;;
28028;SDS011;15345;59.364;18.016;2022-11-10T00:26:19;10.70;;;5.80;;
28028;SDS011;15345;59.364;18.016;2022-11-10T00:27:38;8.02;;;4.50;;
28028;SDS011;15345;59.364;18.016;2022-11-10T00:28:57;14.38;;;4.95;;
28028;SDS011;15345;59.364;18.016;2022-11-10T00:30:16;11.20;;;5.53;;
28028;SDS011;15345;59.364;18.016;2022-11-10T00:31:38;11.98;;;5.30;;
28028;SDS011;15345;59.364;18.016;2022-11-10T00:32:57;13.40;;;5.43;;
28028;SDS011;15345;59.364;18.016;2022-11-10T00:34:15;12.52;;;5.40;;
28028;SDS011;15345;59.364;18.016;2022-11-10T00:35:34;13.88;;;5.70;;
28028;SDS011;15345;59.364;18.016;2022-11-10T00:36:53;12.73;;;5.35;;
28028;SDS011;15345;59.364;18.016;2022-11-10T00:38:12;9.15;;;4.97;;
28028;SDS011;15345;59.364;18.016;2022-11-10T00:39:31;17.85;;;5.80;;
28028;SDS011;15345;59.364;18.016;2022-11-10T00:40:50;13.05;;;5.25;;
28028;SDS011;15345;59.364;18.016;2022-11-10T00:42:09;13.48;;;5.55;;
28028;SDS011;15345;59.364;18.016;2022-11-10T00:43:28;14.98;;;5.97;;
28028;SDS011;15345;59.364;18.016;2022-11-10T00:44:47;12.82;;;5.85;;
28028;SDS011;15345;59.364;18.016;2022-11-10T00:46:06;11.27;;;5.13;;
28028;SDS011;15345;59.364;18.016;2022-11-10T00:47:25;10.25;;;5.93;;
28028;SDS011;15345;59.364;18.016;2022-11-10T00:48:43;11.43;;;5.32;;
28028;SDS011;15345;59.364;18.016;2022-11-10T00:50:02;9.95;;;4.80;;
28028;SDS011;15345;59.364;18.016;2022-11-10T00:51:23;15.40;;;5.65;;
28028;SDS011;15345;59.364;18.016;2022-11-10T00:52:42;11.00;;;5.22;;
28028;SDS011;15345;59.364;18.016;2022-11-10T00:54:01;13.18;;;4.90;;
28028;SDS011;15345;59.364;18.016;2022-11-10T00:55:20;12.25;;;5.30;;
28028;SDS011;15345;59.364;18.016;2022-11-10T00:56:39;12.45;;;5.18;;
28028;SDS011;15345;59.364;18.016;2022-11-10T00:57:58;11.68;;;5.15;;
28028;SDS011;15345;59.364;18.016;2022-11-10T00:59:17;11.27;;;4.90;;
28028;SDS011;15345;59.364;18.016;2022-11-10T01:00:36;14.13;;;5.82;;
28028;SDS011;15345;59.364;18.016;2022-11-10T01:01:55;10.20;;;5.53;;
28028;SDS011;15345;59.364;18.016;2022-11-10T01:03:14;12.77;;;5.85;;
28028;SDS011;15345;59.364;18.016;2022-11-10T01:04:33;14.13;;;5.30;;
28028;SDS011;15345;59.364;18.016;2022-11-10T01:05:52;9.93;;;4.70;;
28028;SDS011;15345;59.364;18.016;2022-11-10T01:07:11;8.85;;;5.10;;
28028;SDS011;15345;59.364;18.016;2022-11-10T01:08:30;9.35;;;5.07;;
28028;SDS011;15345;59.364;18.016;2022-11-10T01:09:49;10.38;;;4.97;;
28028;SDS011;15345;59.364;18.016;2022-11-10T01:11:15;13.20;;;5.35;;
28028;SDS011;15345;59.364;18.016;2022-11-10T01:12:34;15.52;;;6.05;;
28028;SDS011;15345;59.364;18.016;2022-11-10T01:13:54;10.18;;;5.43;;
28028;SDS011;15345;59.364;18.016;2022-11-10T01:15:13;10.60;;;4.95;;
28028;SDS011;15345;59.364;18.016;2022-11-10T01:16:31;19.40;;;5.72;;
28028;SDS011;15345;59.364;18.016;2022-11-10T01:17:51;9.82;;;4.90;;
28028;SDS011;15345;59.364;18.016;2022-11-10T01:19:10;12.32;;;5.30;;
28028;SDS011;15345;59.364;18.016;2022-11-10T01:20:28;16.27;;;5.25;;
28028;SDS011;15345;59.364;18.016;2022-11-10T01:21:49;10.32;;;5.45;;
28028;SDS011;15345;59.364;18.016;2022-11-10T01:23:09;11.32;;;5.80;;
28028;SDS011;15345;59.364;18.016;2022-11-10T01:24:28;10.13;;;5.75;;
28028;SDS011;15345;59.364;18.016;2022-11-10T01:25:47;11.30;;;5.13;;
28028;SDS011;15345;59.364;18.016;2022-11-10T01:27:06;10.55;;;5.47;;
28028;SDS011;15345;59.364;18.016;2022-11-10T01:28:25;11.50;;;5.28;;
28028;SDS011;15345;59.364;18.016;2022-11-10T01:29:44;15.60;;;5.78;;
28028;SDS011;15345;59.364;18.016;2022-11-10T01:31:05;17.85;;;5.93;;
28028;SDS011;15345;59.364;18.016;2022-11-10T01:32:24;9.65;;;6.00;;
28028;SDS011;15345;59.364;18.016;2022-11-10T01:33:43;13.60;;;5.65;;
28028;SDS011;15345;59.364;18.016;2022-11-10T01:35:02;11.18;;;5.40;;
28028;SDS011;15345;59.364;18.016;2022-11-10T01:36:21;12.35;;;5.20;;
28028;SDS011;15345;59.364;18.016;2022-11-10T01:37:39;15.50;;;5.43;;
28028;SDS011;15345;59.364;18.016;2022-11-10T01:38:59;20.13;;;5.78;;
28028;SDS011;15345;59.364;18.016;2022-11-10T01:40:18;15.77;;;5.60;;
28028;SDS011;15345;59.364;18.016;2022-11-10T01:41:38;13.73;;;5.82;;
28028;SDS011;15345;59.364;18.016;2022-11-10T01:42:57;6.75;;;4.93;;
28028;SDS011;15345;59.364;18.016;2022-11-10T01:44:17;8.32;;;4.80;;
28028;SDS011;15345;59.364;18.016;2022-11-10T01:45:45;11.27;;;5.32;;
28028;SDS011;15345;59.364;18.016;2022-11-10T01:47:04;9.90;;;5.25;;
28028;SDS011;15345;59.364;18.016;2022-11-10T01:48:27;8.50;;;5.10;;
28028;SDS011;15345;59.364;18.016;2022-11-10T01:49:47;18.70;;;5.40;;
28028;SDS011;15345;59.364;18.016;2022-11-10T01:51:14;11.23;;;5.28;;
28028;SDS011;15345;59.364;18.016;2022-11-10T01:52:35;9.93;;;5.20;;
28028;SDS011;15345;59.364;18.016;2022-11-10T01:54:02;11.13;;;5.07;;
28028;SDS011;15345;59.364;18.016;2022-11-10T01:55:23;13.88;;;5.05;;
28028;SDS011;15345;59.364;18.016;2022-11-10T01:56:43;14.38;;;5.20;;
28028;SDS011;15345;59.364;18.016;2022-11-10T01:58:03;11.95;;;5.18;;
28028;SDS011;15345;59.364;18.016;2022-11-10T01:59:23;9.15;;;5.22;;
28028;SDS011;15345;59.364;18.016;2022-11-10T02:00:43;8.68;;;5.20;;
28028;SDS011;15345;59.364;18.016;2022-11-10T02:02:14;10.70;;;5.13;;
28028;SDS011;15345;59.364;18.016;2022-11-10T02:03:38;10.10;;;4.70;;
28028;SDS011;15345;59.364;18.016;2022-11-10T02:04:57;10.35;;;4.85;;
28028;SDS011;15345;59.364;18.016;2022-11-10T02:06:17;9.77;;;5.50;;
28028;SDS011;15345;59.364;18.016;2022-11-10T02:07:37;12.00;;;4.88;;
28028;SDS011;15345;59.364;18.016;2022-11-10T02:08:57;17.05;;;5.88;;
28028;SDS011;15345;59.364;18.016;2022-11-10T02:10:19;12.70;;;4.82;;
28028;SDS011;15345;59.364;18.016;2022-11-10T02:11:38;8.77;;;5.10;;
28028;SDS011;15345;59.364;18.016;2022-11-10T02:12:58;13.73;;;5.22;;
28028;SDS011;15345;59.364;18.016;2022-11-10T02:14:17;13.32;;;5.35;;
28028;SDS011;15345;59.364;18.016;2022-11-10T02:15:36;11.90;;;5.88;;
28028;SDS011;15345;59.364;18.016;2022-11-10T02:16:55;10.13;;;5.50;;
28028;SDS011;15345;59.364;18.016;2022-11-10T02:18:13;8.52;;;5.03;;
28028;SDS011;15345;59.364;18.016;2022-11-10T02:19:38;16.48;;;6.05;;
28028;SDS011;15345;59.364;18.016;2022-11-10T02:20:57;9.60;;;5.93;;
28028;SDS011;15345;59.364;18.016;2022-11-10T02:22:17;11.77;;;5.68;;
28028;SDS011;15345;59.364;18.016;2022-11-10T02:24:55;15.35;;;5.43;;
28028;SDS011;15345;59.364;18.016;2022-11-10T02:26:16;12.07;;;5.40;;
28028;SDS011;15345;59.364;18.016;2022-11-10T02:27:35;15.65;;;5.18;;
28028;SDS011;15345;59.364;18.016;2022-11-10T02:28:54;17.70;;;5.78;;
28028;SDS011;15345;59.364;18.016;2022-11-10T02:30:14;14.75;;;5.07;;
28028;SDS011;15345;59.364;18.016;2022-11-10T02:31:34;11.43;;;5.15;;
28028;SDS011;15345;59.364;18.016;2022-11-10T02:32:53;17.52;;;5.97;;
28028;SDS011;15345;59.364;18.016;2022-11-10T02:34:11;10.52;;;5.20;;
28028;SDS011;15345;59.364;18.016;2022-11-10T02:35:30;11.20;;;5.32;;
28028;SDS011;15345;59.364;18.016;2022-11-10T02:36:49;18.58;;;5.50;;
28028;SDS011;15345;59.364;18.016;2022-11-10T02:38:08;12.25;;;5.55;;
28028;SDS011;15345;59.364;18.016;2022-11-10T02:39:28;16.67;;;5.85;;
28028;SDS011;15345;59.364;18.016;2022-11-10T02:40:50;13.70;;;5.78;;
28028;SDS011;15345;59.364;18.016;2022-11-10T02:42:09;13.70;;;5.85;;
28028;SDS011;15345;59.364;18.016;2022-11-10T02:43:28;16.77;;;6.63;;
28028;SDS011;15345;59.364;18.016;2022-11-10T02:44:47;15.15;;;5.88;;
28028;SDS011;15345;59.364;18.016;2022-11-10T02:46:05;15.68;;;5.75;;
28028;SDS011;15345;59.364;18.016;2022-11-10T02:47:24;11.80;;;5.15;;
28028;SDS011;15345;59.364;18.016;2022-11-10T02:48:43;12.07;;;5.70;;
28028;SDS011;15345;59.364;18.016;2022-11-10T02:50:02;11.07;;;5.30;;
28028;SDS011;15345;59.364;18.016;2022-11-10T02:51:20;14.38;;;5.47;;
28028;SDS011;15345;59.364;18.016;2022-11-10T02:52:39;10.82;;;5.78;;
28028;SDS011;15345;59.364;18.016;2022-11-10T02:53:58;12.10;;;5.45;;
28028;SDS011;15345;59.364;18.016;2022-11-10T02:55:17;11.70;;;5.57;;
28028;SDS011;15345;59.364;18.016;2022-11-10T02:56:36;14.75;;;5.90;;
28028;SDS011;15345;59.364;18.016;2022-11-10T02:57:55;12.45;;;6.00;;
28028;SDS011;15345;59.364;18.016;2022-11-10T02:59:14;11.60;;;5.88;;
28028;SDS011;15345;59.364;18.016;2022-11-10T03:00:33;12.45;;;5.43;;
28028;SDS011;15345;59.364;18.016;2022-11-10T03:01:52;10.73;;;5.45;;
28028;SDS011;15345;59.364;18.016;2022-11-10T03:03:11;9.50;;;5.32;;
28028;SDS011;15345;59.364;18.016;2022-11-10T03:04:30;13.15;;;5.07;;
28028;SDS011;15345;59.364;18.016;2022-11-10T03:05:49;11.80;;;5.38;;
28028;SDS011;15345;59.364;18.016;2022-11-10T03:07:08;8.88;;;4.88;;
28028;SDS011;15345;59.364;18.016;2022-11-10T03:08:27;14.45;;;5.40;;
28028;SDS011;15345;59.364;18.016;2022-11-10T03:09:46;18.95;;;6.00;;
28028;SDS011;15345;59.364;18.016;2022-11-10T03:11:05;8.70;;;5.05;;
28028;SDS011;15345;59.364;18.016;2022-11-10T03:12:24;16.20;;;5.40;;
28028;SDS011;15345;59.364;18.016;2022-11-10T03:13:42;8.95;;;4.82;;
28028;SDS011;15345;59.364;18.016;2022-11-10T03:15:01;8.80;;;4.55;;
28028;SDS011;15345;59.364;18.016;2022-11-10T03:16:20;8.40;;;4.65;;
28028;SDS011;15345;59.364;18.016;2022-11-10T03:17:39;13.90;;;4.97;;
28028;SDS011;15345;59.364;18.016;2022-11-10T03:18:58;13.32;;;5.03;;
28028;SDS011;15345;59.364;18.016;2022-11-10T03:20:17;11.38;;;5.15;;
28028;SDS011;15345;59.364;18.016;2022-11-10T03:21:36;10.73;;;4.47;;
28028;SDS011;15345;59.364;18.016;2022-11-10T03:22:59;9.52;;;4.72;;
28028;SDS011;15345;59.364;18.016;2022-11-10T03:24:18;15.15;;;4.68;;
28028;SDS011;15345;59.364;18.016;2022-11-10T03:25:37;7.53;;;4.43;;
28028;SDS011;15345;59.364;18.016;2022-11-10T03:26:56;14.95;;;4.75;;
28028;SDS011;15345;59.364;18.016;2022-11-10T03:28:15;14.43;;;5.03;;
28028;SDS011;15345;59.364;18.016;2022-11-10T03:29:34;8.95;;;4.68;;
28028;SDS011;15345;59.364;18.016;2022-11-10T03:30:53;11.07;;;4.50;;
28028;SDS011;15345;59.364;18.016;2022-11-10T03:32:11;11.68;;;4.70;;
28028;SDS011;15345;59.364;18.016;2022-11-10T03:33:30;10.48;;;4.80;;
28028;SDS011;15345;59.364;18.016;2022-11-10T03:34:49;6.97;;;4.45;;
28028;SDS011;15345;59.364;18.016;2022-11-10T03:36:08;10.23;;;4.70;;
28028;SDS011;15345;59.364;18.016;2022-11-10T03:37:27;9.27;;;4.38;;
28028;SDS011;15345;59.364;18.016;2022-11-10T03:38:46;13.75;;;5.10;;
28028;SDS011;15345;59.364;18.016;2022-11-10T03:40:05;18.77;;;4.88;;
28028;SDS011;15345;59.364;18.016;2022-11-10T03:41:25;14.10;;;4.70;;
28028;SDS011;15345;59.364;18.016;2022-11-10T03:42:44;9.15;;;4.32;;
28028;SDS011;15345;59.364;18.016;2022-11-10T03:44:03;11.95;;;5.13;;
28028;SDS011;15345;59.364;18.016;2022-11-10T03:45:22;17.75;;;4.88;;
28028;SDS011;15345;59.364;18.016;2022-11-10T03:46:41;14.07;;;4.72;;
28028;SDS011;15345;59.364;18.016;2022-11-10T03:48:00;10.57;;;4.68;;
28028;SDS011;15345;59.364;18.016;2022-11-10T03:49:19;7.28;;;4.55;;
28028;SDS011;15345;59.364;18.016;2022-11-10T03:50:38;11.02;;;4.22;;
28028;SDS011;15345;59.364;18.016;2022-11-10T03:51:57;12.23;;;4.78;;
28028;SDS011;15345;59.364;18.016;2022-11-10T03:53:15;8.27;;;4.82;;
28028;SDS011;15345;59.364;18.016;2022-11-10T03:54:34;10.45;;;4.30;;
28028;SDS011;15345;59.364;18.016;2022-11-10T03:55:53;8.82;;;4.30;;
28028;SDS011;15345;59.364;18.016;2022-11-10T03:57:12;12.68;;;4.38;;
28028;SDS011;15345;59.364;18.016;2022-11-10T03:58:31;13.27;;;4.43;;
28028;SDS011;15345;59.364;18.016;2022-11-10T03:59:50;8.02;;;4.68;;
28028;SDS011;15345;59.364;18.016;2022-11-10T04:01:09;9.65;;;4.20;;
28028;SDS011;15345;59.364;18.016;2022-11-10T04:02:28;10.82;;;4.53;;
28028;SDS011;15345;59.364;18.016;2022-11-10T04:03:47;14.25;;;4.60;;
28028;SDS011;15345;59.364;18.016;2022-11-10T04:05:06;9.07;;;4.20;;
28028;SDS011;15345;59.364;18.016;2022-11-10T04:06:44;11.57;;;4.70;;
28028;SDS011;15345;59.364;18.016;2022-11-10T04:08:22;13.30;;;4.32;;
28028;SDS011;15345;59.364;18.016;2022-11-10T04:10:00;7.53;;;4.00;;
28028;SDS011;15345;59.364;18.016;2022-11-10T04:11:19;11.98;;;4.45;;
28028;SDS011;15345;59.364;18.016;2022-11-10T04:12:57;12.75;;;4.60;;
28028;SDS011;15345;59.364;18.016;2022-11-10T04:14:35;7.20;;;3.85;;
28028;SDS011;15345;59.364;18.016;2022-11-10T04:16:13;17.08;;;3.97;;
28028;SDS011;15345;59.364;18.016;2022-11-10T04:17:32;15.70;;;4.70;;
28028;SDS011;15345;59.364;18.016;2022-11-10T04:18:50;14.25;;;4.53;;
28028;SDS011;15345;59.364;18.016;2022-11-10T04:20:09;9.25;;;3.92;;
28028;SDS011;15345;59.364;18.016;2022-11-10T04:21:28;7.57;;;3.95;;
28028;SDS011;15345;59.364;18.016;2022-11-10T04:22:47;13.10;;;4.38;;
28028;SDS011;15345;59.364;18.016;2022-11-10T04:24:25;7.82;;;3.90;;
28028;SDS011;15345;59.364;18.016;2022-11-10T04:25:44;15.18;;;4.43;;
28028;SDS011;15345;59.364;18.016;2022-11-10T04:27:23;10.73;;;4.00;;
28028;SDS011;15345;59.364;18.016;2022-11-10T04:28:42;25.75;;;4.63;;
28028;SDS011;15345;59.364;18.016;2022-11-10T04:30:02;12.55;;;4.45;;
28028;SDS011;15345;59.364;18.016;2022-11-10T04:31:21;10.80;;;3.90;;
28028;SDS011;15345;59.364;18.016;2022-11-10T04:32:40;12.23;;;3.97;;
28028;SDS011;15345;59.364;18.016;2022-11-10T04:33:59;14.02;;;4.10;;
28028;SDS011;15345;59.364;18.016;2022-11-10T04:35:18;7.43;;;3.67;;
28028;SDS011;15345;59.364;18.016;2022-11-10T04:36:39;9.63;;;4.03;;
28028;SDS011;15345;59.364;18.016;2022-11-10T04:37:58;12.95;;;4.20;;
28028;SDS011;15345;59.364;18.016;2022-11-10T04:39:18;10.93;;;4.45;;
28028;SDS011;15345;59.364;18.016;2022-11-10T04:40:37;11.48;;;3.95;;
28028;SDS011;15345;59.364;18.016;2022-11-10T04:41:56;11.20;;;4.07;;
28028;SDS011;15345;59.364;18.016;2022-11-10T04:43:15;10.68;;;4.35;;
28028;SDS011;15345;59.364;18.016;2022-11-10T04:44:33;10.23;;;3.80;;
28028;SDS011;15345;59.364;18.016;2022-11-10T04:45:52;11.52;;;3.75;;
28028;SDS011;15345;59.364;18.016;2022-11-10T04:47:11;13.05;;;4.13;;
28028;SDS011;15345;59.364;18.016;2022-11-10T04:48:30;7.30;;;3.80;;
28028;SDS011;15345;59.364;18.016;2022-11-10T04:49:49;7.75;;;3.85;;
28028;SDS011;15345;59.364;18.016;2022-11-10T04:51:09;12.68;;;3.83;;
28028;SDS011;15345;59.364;18.016;2022-11-10T04:52:28;14.30;;;4.32;;
28028;SDS011;15345;59.364;18.016;2022-11-10T04:53:47;7.32;;;2.78;;
28028;SDS011;15345;59.364;18.016;2022-11-10T04:55:06;7.65;;;3.58;;
28028;SDS011;15345;59.364;18.016;2022-11-10T04:56:25;11.15;;;3.63;;
28028;SDS011;15345;59.364;18.016;2022-11-10T04:57:44;9.27;;;3.92;;
28028;SDS011;15345;59.364;18.016;2022-11-10T04:59:03;15.57;;;3.42;;
28028;SDS011;15345;59.364;18.016;2022-11-10T05:00:22;8.73;;;3.22;;
28028;SDS011;15345;59.364;18.016;2022-11-10T05:01:41;10.82;;;3.70;;
28028;SDS011;15345;59.364;18.016;2022-11-10T05:03:00;8.68;;;3.20;;
28028;SDS011;15345;59.364;18.016;2022-11-10T05:04:19;9.70;;;3.15;;
28028;SDS011;15345;59.364;18.016;2022-11-10T05:05:39;15.80;;;4.15;;
28028;SDS011;15345;59.364;18.016;2022-11-10T05:06:58;5.72;;;2.85;;
28028;SDS011;15345;59.364;18.016;2022-11-10T05:08:17;6.00;;;2.90;;
28028;SDS011;15345;59.364;18.016;2022-11-10T05:09:36;12.10;;;3.47;;
28028;SDS011;15345;59.364;18.016;2022-11-10T05:10:55;12.07;;;3.42;;
28028;SDS011;15345;59.364;18.016;2022-11-10T05:12:13;11.90;;;3.10;;
28028;SDS011;15345;59.364;18.016;2022-11-10T05:13:32;7.32;;;3.08;;
28028;SDS011;15345;59.364;18.016;2022-11-10T05:14:51;13.05;;;4.03;;
28028;SDS011;15345;59.364;18.016;2022-11-10T05:16:10;7.57;;;3.35;;
28028;SDS011;15345;59.364;18.016;2022-11-10T05:17:29;14.20;;;3.58;;
28028;SDS011;15345;59.364;18.016;2022-11-10T05:18:49;10.88;;;3.28;;
28028;SDS011;15345;59.364;18.016;2022-11-10T05:20:11;11.85;;;3.78;;
28028;SDS011;15345;59.364;18.016;2022-11-10T05:21:30;11.30;;;3.60;;
28028;SDS011;15345;59.364;18.016;2022-11-10T05:22:49;9.25;;;3.45;;
28028;SDS011;15345;59.364;18.016;2022-11-10T05:24:27;11.43;;;3.60;;
28028;SDS011;15345;59.364;18.016;2022-11-10T05:25:46;10.10;;;3.55;;
28028;SDS011;15345;59.364;18.016;2022-11-10T05:27:05;10.85;;;3.30;;
28028;SDS011;15345;59.364;18.016;2022-11-10T05:28:26;8.82;;;4.07;;
28028;SDS011;15345;59.364;18.016;2022-11-10T05:29:45;9.60;;;3.63;;
28028;SDS011;15345;59.364;18.016;2022-11-10T05:31:04;8.30;;;3.50;;
28028;SDS011;15345;59.364;18.016;2022-11-10T05:32:23;15.93;;;4.03;;
28028;SDS011;15345;59.364;18.016;2022-11-10T05:33:42;12.88;;;3.78;;
28028;SDS011;15345;59.364;18.016;2022-11-10T05:35:01;11.45;;;3.35;;
28028;SDS011;15345;59.364;18.016;2022-11-10T05:36:20;13.25;;;3.60;;
28028;SDS011;15345;59.364;18.016;2022-11-10T05:37:39;8.82;;;3.20;;
28028;SDS011;15345;59.364;18.016;2022-11-10T05:38:59;4.82;;;3.17;;
28028;SDS011;15345;59.364;18.016;2022-11-10T05:40:21;10.18;;;3.33;;
28028;SDS011;15345;59.364;18.016;2022-11-10T05:41:57;14.52;;;3.90;;
28028;SDS011;15345;59.364;18.016;2022-11-10T05:43:16;10.60;;;3.22;;
28028;SDS011;15345;59.364;18.016;2022-11-10T05:44:41;10.70;;;3.38;;
28028;SDS011;15345;59.364;18.016;2022-11-10T05:46:01;12.23;;;3.50;;
28028;SDS011;15345;59.364;18.016;2022-11-10T05:47:27;9.95;;;3.55;;
28028;SDS011;15345;59.364;18.016;2022-11-10T05:48:46;14.85;;;3.65;;
28028;SDS011;15345;59.364;18.016;2022-11-10T05:50:15;12.70;;;3.38;;
28028;SDS011;15345;59.364;18.016;2022-11-10T05:51:37;10.40;;;3.65;;
28028;SDS011;15345;59.364;18.016;2022-11-10T05:52:56;8.00;;;3.40;;
28028;SDS011;15345;59.364;18.016;2022-11-10T05:54:15;11.93;;;3.85;;
28028;SDS011;15345;59.364;18.016;2022-11-10T05:55:34;11.50;;;4.13;;
28028;SDS011;15345;59.364;18.016;2022-11-10T05:56:53;10.98;;;4.03;;
28028;SDS011;15345;59.364;18.016;2022-11-10T05:58:12;9.90;;;3.55;;
28028;SDS011;15345;59.364;18.016;2022-11-10T05:59:31;10.27;;;3.92;;
28028;SDS011;15345;59.364;18.016;2022-11-10T06:00:50;12.50;;;3.90;;
28028;SDS011;15345;59.364;18.016;2022-11-10T06:02:09;9.45;;;3.80;;
28028;SDS011;15345;59.364;18.016;2022-11-10T06:03:29;11.30;;;3.53;;
28028;SDS011;15345;59.364;18.016;2022-11-10T06:04:48;9.30;;;4.00;;
28028;SDS011;15345;59.364;18.016;2022-11-10T06:06:10;11.70;;;3.70;;
28028;SDS011;15345;59.364;18.016;2022-11-10T06:07:29;12.00;;;3.83;;
28028;SDS011;15345;59.364;18.016;2022-11-10T06:08:48;11.30;;;3.78;;
28028;SDS011;15345;59.364;18.016;2022-11-10T06:10:08;13.20;;;3.70;;
28028;SDS011;15345;59.364;18.016;2022-11-10T06:11:26;10.27;;;3.55;;
28028;SDS011;15345;59.364;18.016;2022-11-10T06:12:46;9.73;;;3.85;;
28028;SDS011;15345;59.364;18.016;2022-11-10T06:14:11;12.57;;;4.00;;
28028;SDS011;15345;59.364;18.016;2022-11-10T06:15:30;7.18;;;4.00;;
28028;SDS011;15345;59.364;18.016;2022-11-10T06:16:49;8.93;;;4.20;;
28028;SDS011;15345;59.364;18.016;2022-11-10T06:18:13;10.90;;;4.00;;
28028;SDS011;15345;59.364;18.016;2022-11-10T06:19:39;16.25;;;4.25;;
28028;SDS011;15345;59.364;18.016;2022-11-10T06:21:00;9.20;;;4.38;;
28028;SDS011;15345;59.364;18.016;2022-11-10T06:22:22;13.02;;;4.70;;
28028;SDS011;15345;59.364;18.016;2022-11-10T06:23:42;15.32;;;4.57;;
28028;SDS011;15345;59.364;18.016;2022-11-10T06:25:07;10.57;;;4.28;;
28028;SDS011;15345;59.364;18.016;2022-11-10T06:26:26;11.95;;;4.85;;
28028;SDS011;15345;59.364;18.016;2022-11-10T06:27:45;13.60;;;4.20;;
28028;SDS011;15345;59.364;18.016;2022-11-10T06:29:10;8.68;;;4.43;;
28028;SDS011;15345;59.364;18.016;2022-11-10T06:30:30;12.15;;;4.47;;
28028;SDS011;15345;59.364;18.016;2022-11-10T06:31:49;17.52;;;4.35;;
28028;SDS011;15345;59.364;18.016;2022-11-10T06:33:23;10.15;;;4.13;;
28028;SDS011;15345;59.364;18.016;2022-11-10T06:34:48;11.60;;;4.43;;
28028;SDS011;15345;59.364;18.016;2022-11-10T06:36:08;12.07;;;4.20;;
28028;SDS011;15345;59.364;18.016;2022-11-10T06:37:27;11.70;;;4.60;;
28028;SDS011;15345;59.364;18.016;2022-11-10T06:38:46;13.93;;;4.65;;
28028;SDS011;15345;59.364;18.016;2022-11-10T06:40:06;15.48;;;4.65;;
28028;SDS011;15345;59.364;18.016;2022-11-10T06:41:26;11.98;;;4.90;;
28028;SDS011;15345;59.364;18.016;2022-11-10T06:42:44;8.88;;;4.20;;
28028;SDS011;15345;59.364;18.016;2022-11-10T06:44:06;13.13;;;4.70;;
28028;SDS011;15345;59.364;18.016;2022-11-10T06:45:25;11.05;;;5.22;;
28028;SDS011;15345;59.364;18.016;2022-11-10T06:46:49;11.90;;;5.47;;
28028;SDS011;15345;59.364;18.016;2022-11-10T06:48:10;10.60;;;5.03;;
28028;SDS011;15345;59.364;18.016;2022-11-10T06:49:33;19.48;;;5.00;;
28028;SDS011;15345;59.364;18.016;2022-11-10T06:50:52;14.55;;;5.30;;
28028;SDS011;15345;59.364;18.016;2022-11-10T06:52:13;12.32;;;5.60;;
28028;SDS011;15345;59.364;18.016;2022-11-10T06:53:32;14.90;;;5.38;;
28028;SDS011;15345;59.364;18.016;2022-11-10T06:54:51;12.73;;;4.80;;
28028;SDS011;15345;59.364;18.016;2022-11-10T06:56:10;15.38;;;5.65;;
28028;SDS011;15345;59.364;18.016;2022-11-10T06:57:28;15.45;;;5.18;;
28028;SDS011;15345;59.364;18.016;2022-11-10T06:58:51;16.02;;;5.85;;
28028;SDS011;15345;59.364;18.016;2022-11-10T07:00:16;15.30;;;5.03;;
28028;SDS011;15345;59.364;18.016;2022-11-10T07:01:35;16.35;;;5.82;;
28028;SDS011;15345;59.364;18.016;2022-11-10T07:03:01;14.93;;;5.15;;
28028;SDS011;15345;59.364;18.016;2022-11-10T07:04:26;15.55;;;5.75;;
28028;SDS011;15345;59.364;18.016;2022-11-10T07:05:45;16.67;;;5.85;;
28028;SDS011;15345;59.364;18.016;2022-11-10T07:07:04;18.33;;;5.45;;
28028;SDS011;15345;59.364;18.016;2022-11-10T07:08:23;12.75;;;5.47;;
28028;SDS011;15345;59.364;18.016;2022-11-10T07:09:42;17.27;;;5.25;;
28028;SDS011;15345;59.364;18.016;2022-11-10T07:11:01;11.68;;;5.55;;
28028;SDS011;15345;59.364;18.016;2022-11-10T07:12:20;15.45;;;5.80;;
28028;SDS011;15345;59.364;18.016;2022-11-10T07:13:39;11.25;;;5.40;;
28028;SDS011;15345;59.364;18.016;2022-11-10T07:14:59;11.10;;;5.25;;
28028;SDS011;15345;59.364;18.016;2022-11-10T07:16:18;11.68;;;4.82;;
28028;SDS011;15345;59.364;18.016;2022-11-10T07:17:40;14.68;;;5.60;;
28028;SDS011;15345;59.364;18.016;2022-11-10T07:18:59;17.00;;;4.80;;
28028;SDS011;15345;59.364;18.016;2022-11-10T07:20:18;8.70;;;4.90;;
28028;SDS011;15345;59.364;18.016;2022-11-10T07:21:37;13.88;;;5.22;;
28028;SDS011;15345;59.364;18.016;2022-11-10T07:22:59;15.20;;;5.18;;
28028;SDS011;15345;59.364;18.016;2022-11-10T07:24:19;16.60;;;5.32;;
28028;SDS011;15345;59.364;18.016;2022-11-10T07:25:37;9.18;;;5.05;;
28028;SDS011;15345;59.364;18.016;2022-11-10T07:26:57;12.75;;;4.85;;
28028;SDS011;15345;59.364;18.016;2022-11-10T07:28:16;16.58;;;5.45;;
28028;SDS011;15345;59.364;18.016;2022-11-10T07:29:34;12.52;;;5.20;;
28028;SDS011;15345;59.364;18.016;2022-11-10T07:30:53;13.63;;;4.78;;
28028;SDS011;15345;59.364;18.016;2022-11-10T07:32:12;10.27;;;5.07;;
28028;SDS011;15345;59.364;18.016;2022-11-10T07:33:32;13.80;;;5.47;;
28028;SDS011;15345;59.364;18.016;2022-11-10T07:34:51;12.43;;;5.13;;
28028;SDS011;15345;59.364;18.016;2022-11-10T07:36:10;12.45;;;4.93;;
28028;SDS011;15345;59.364;18.016;2022-11-10T07:37:29;16.00;;;6.22;;
28028;SDS011;15345;59.364;18.016;2022-11-10T07:38:48;14.38;;;5.63;;
28028;SDS011;15345;59.364;18.016;2022-11-10T07:40:07;14.52;;;5.57;;
28028;SDS011;15345;59.364;18.016;2022-11-10T07:41:26;14.63;;;5.10;;
28028;SDS011;15345;59.364;18.016;2022-11-10T07:42:45;13.05;;;5.95;;
28028;SDS011;15345;59.364;18.016;2022-11-10T07:44:03;16.35;;;5.93;;
28028;SDS011;15345;59.364;18.016;2022-11-10T07:45:22;13.70;;;5.85;;
28028;SDS011;15345;59.364;18.016;2022-11-10T07:46:41;14.20;;;5.82;;
28028;SDS011;15345;59.364;18.016;2022-11-10T07:48:04;12.40;;;5.60;;
28028;SDS011;15345;59.364;18.016;2022-11-10T07:49:23;16.13;;;5.82;;
28028;SDS011;15345;59.364;18.016;2022-11-10T07:50:43;12.30;;;5.75;;
28028;SDS011;15345;59.364;18.016;2022-11-10T07:52:02;14.05;;;5.57;;